createdAt,value
2023-04-16T00:02:15.388Z,8.60
2023-04-16T00:04:42.706Z,8.60
2023-04-16T00:07:09.887Z,8.60
2023-04-16T00:09:37.005Z,8.60
2023-04-16T00:12:04.698Z,8.60
2023-04-16T00:14:31.869Z,8.60
2023-04-16T00:16:59.027Z,8.60
2023-04-16T00:19:26.248Z,8.60
2023-04-16T00:21:56.544Z,8.60
2023-04-16T00:24:26.836Z,8.60
2023-04-16T00:26:54.144Z,8.60
2023-04-16T00:29:21.273Z,8.60
2023-04-16T00:31:48.449Z,8.60
2023-04-16T00:34:15.900Z,8.60
2023-04-16T00:36:42.989Z,8.50
2023-04-16T00:39:10.168Z,8.60
2023-04-16T00:41:38.532Z,8.60
2023-04-16T00:44:05.659Z,8.60
2023-04-16T00:46:33.203Z,8.60
2023-04-16T00:49:01.611Z,8.60
2023-04-16T00:51:28.935Z,8.60
2023-04-16T00:53:56.507Z,8.60
2023-04-16T00:56:25.818Z,8.60
2023-04-16T00:58:52.902Z,8.60
2023-04-16T01:01:20.096Z,8.60
2023-04-16T01:03:49.593Z,8.60
2023-04-16T01:06:18.232Z,8.60
2023-04-16T01:08:46.907Z,8.60
2023-04-16T01:11:15.698Z,8.60
2023-04-16T01:13:43.155Z,8.60
2023-04-16T01:16:11.951Z,8.60
2023-04-16T01:18:39.607Z,8.60
2023-04-16T01:21:06.888Z,8.60
2023-04-16T01:23:34.011Z,8.60
2023-04-16T01:26:01.202Z,8.60
2023-04-16T01:28:28.313Z,8.60
2023-04-16T01:30:55.702Z,8.70
2023-04-16T01:33:23.293Z,8.60
2023-04-16T01:35:50.568Z,8.70
2023-04-16T01:38:17.811Z,8.60
2023-04-16T01:40:44.943Z,8.60
2023-04-16T01:43:12.119Z,8.60
2023-04-16T01:45:39.216Z,8.60
2023-04-16T01:48:06.701Z,8.60
2023-04-16T01:50:34.132Z,8.60
2023-04-16T01:53:02.339Z,8.60
2023-04-16T01:55:29.431Z,8.60
2023-04-16T01:57:56.521Z,8.50
2023-04-16T02:00:24.004Z,8.60
2023-04-16T02:02:51.298Z,8.60
2023-04-16T02:05:18.532Z,8.50
2023-04-16T02:07:45.648Z,8.50
2023-04-16T02:10:12.779Z,8.50
2023-04-16T02:12:39.917Z,8.50
2023-04-16T02:15:07.916Z,8.50
2023-04-16T02:17:35.008Z,8.50
2023-04-16T02:20:04.020Z,8.50
2023-04-16T02:22:31.074Z,8.50
2023-04-16T02:24:58.187Z,8.50
2023-04-16T02:27:28.330Z,8.50
2023-04-16T02:29:55.705Z,8.50
2023-04-16T02:32:22.897Z,8.50
2023-04-16T02:34:49.976Z,8.50
2023-04-16T02:37:17.076Z,8.50
2023-04-16T02:39:44.277Z,8.50
2023-04-16T02:42:11.377Z,8.50
2023-04-16T02:44:38.446Z,8.50
2023-04-16T02:47:05.640Z,8.50
2023-04-16T02:49:32.909Z,8.50
2023-04-16T02:51:59.998Z,8.50
2023-04-16T02:54:27.139Z,8.50
2023-04-16T02:56:55.490Z,8.60
2023-04-16T02:59:22.810Z,8.50
2023-04-16T03:01:50.132Z,8.50
2023-04-16T03:04:17.403Z,8.50
2023-04-16T03:06:44.505Z,8.50
2023-04-16T03:09:11.805Z,8.50
2023-04-16T03:11:38.951Z,8.50
2023-04-16T03:14:05.996Z,8.50
2023-04-16T03:16:33.063Z,8.50
2023-04-16T03:19:00.162Z,8.50
2023-04-16T03:21:28.078Z,8.50
2023-04-16T03:23:58.281Z,8.50
2023-04-16T03:26:25.861Z,8.50
2023-04-16T03:28:52.988Z,8.50
2023-04-16T03:31:20.098Z,8.50
2023-04-16T03:33:48.122Z,8.50
2023-04-16T03:36:15.255Z,8.50
2023-04-16T03:38:42.394Z,8.50
2023-04-16T03:41:09.479Z,8.50
2023-04-16T03:43:36.571Z,8.50
2023-04-16T05:03:51.038Z,8.50
2023-04-16T05:06:18.323Z,8.50
2023-04-16T05:08:45.478Z,8.50
2023-04-16T05:11:12.686Z,8.50
2023-04-16T05:13:39.773Z,8.50
2023-04-16T05:16:07.616Z,8.50
2023-04-16T05:18:34.816Z,8.50
2023-04-16T05:21:01.953Z,8.50
2023-04-16T05:23:29.047Z,8.50
2023-04-16T05:25:56.154Z,8.50
2023-04-16T05:28:23.222Z,8.50
2023-04-16T05:30:51.086Z,8.50
2023-04-16T05:33:18.178Z,8.60
2023-04-16T05:35:45.265Z,8.50
2023-04-16T05:38:12.335Z,8.60
2023-04-16T05:40:39.462Z,8.50
2023-04-16T05:43:06.571Z,8.50
2023-04-16T05:45:39.702Z,8.60
2023-04-16T05:48:09.225Z,8.60
2023-04-16T05:50:37.215Z,8.60
2023-04-16T05:53:09.931Z,8.50
2023-04-16T05:55:37.214Z,8.60
2023-04-16T05:58:05.258Z,8.60
2023-04-16T06:00:33.138Z,8.60
2023-04-16T06:03:00.337Z,8.60
2023-04-16T06:05:28.161Z,8.60
2023-04-16T06:07:56.248Z,8.60
2023-04-16T06:10:23.480Z,8.60
2023-04-16T06:12:51.424Z,8.70
2023-04-16T06:15:18.576Z,8.70
2023-04-16T06:17:45.698Z,8.70
2023-04-16T06:20:13.263Z,8.70
2023-04-16T06:22:40.520Z,8.70
2023-04-16T06:25:08.146Z,8.70
2023-04-16T06:27:35.222Z,8.70
2023-04-16T06:30:02.342Z,8.70
2023-04-16T06:32:29.540Z,8.80
2023-04-16T06:34:59.580Z,8.70
2023-04-16T06:37:27.396Z,8.80
2023-04-16T06:39:54.492Z,8.80
2023-04-16T06:42:21.567Z,8.80
2023-04-16T06:44:48.648Z,8.80
2023-04-16T06:47:16.510Z,8.80
2023-04-16T06:49:43.661Z,8.90
2023-04-16T06:52:10.911Z,8.80
2023-04-16T06:54:38.097Z,8.80
2023-04-16T06:57:05.154Z,8.80
2023-04-16T06:59:32.452Z,8.80
2023-04-16T07:01:59.583Z,8.80
2023-04-16T07:04:27.425Z,8.80
2023-04-16T07:06:54.526Z,8.80
2023-04-16T07:09:21.625Z,8.70
2023-04-16T07:11:48.980Z,8.80
2023-04-16T07:14:16.215Z,8.80
2023-04-16T07:16:43.421Z,8.90
2023-04-16T07:19:11.101Z,8.90
2023-04-16T07:21:38.426Z,8.80
2023-04-16T07:24:05.780Z,8.80
2023-04-16T07:26:33.099Z,8.90
2023-04-16T07:29:00.171Z,8.90
2023-04-16T07:31:27.930Z,8.90
2023-04-16T07:33:55.079Z,8.90
2023-04-16T07:36:22.182Z,8.90
2023-04-16T07:38:49.286Z,8.90
2023-04-16T07:41:16.499Z,8.90
2023-04-16T07:43:43.623Z,8.90
2023-04-16T07:46:10.871Z,8.90
2023-04-16T07:48:37.960Z,8.90
2023-04-16T07:51:05.039Z,8.90
2023-04-16T07:53:32.348Z,8.90
2023-04-16T07:55:59.474Z,8.90
2023-04-16T07:58:27.283Z,8.90
2023-04-16T08:00:54.417Z,9.00
2023-04-16T08:03:21.851Z,9.00
2023-04-16T08:05:49.064Z,9.00
2023-04-16T08:08:16.251Z,9.00
2023-04-16T08:10:43.318Z,9.10
2023-04-16T08:13:10.697Z,9.10
2023-04-16T08:15:37.807Z,9.10
2023-04-16T08:18:06.094Z,9.10
2023-04-16T08:20:33.751Z,9.10
2023-04-16T08:23:00.833Z,9.10
2023-04-16T08:25:27.996Z,9.10
2023-04-16T08:27:55.228Z,9.10
2023-04-16T08:30:23.115Z,9.10
2023-04-16T08:32:50.948Z,9.10
2023-04-16T08:35:18.116Z,9.10
2023-04-16T08:37:45.198Z,9.20
2023-04-16T08:40:12.637Z,9.20
2023-04-16T08:42:53.793Z,9.20
2023-04-16T08:45:21.167Z,9.20
2023-04-16T08:47:52.300Z,9.20
2023-04-16T08:50:25.763Z,9.30
2023-04-16T08:53:00.942Z,9.30
2023-04-16T08:55:51.509Z,9.40
2023-04-16T08:58:22.534Z,9.30
2023-04-16T09:00:50.124Z,9.40
2023-04-16T09:03:17.426Z,9.40
2023-04-16T09:05:44.772Z,9.40
2023-04-16T09:08:12.422Z,9.50
2023-04-16T09:10:39.662Z,9.50
2023-04-16T09:13:08.457Z,9.40
2023-04-16T09:15:36.162Z,9.50
2023-04-16T09:18:03.348Z,9.50
2023-04-16T09:20:30.624Z,9.50
2023-04-16T09:22:57.744Z,9.60
2023-04-16T09:25:28.446Z,9.60
2023-04-16T09:27:55.810Z,9.60
2023-04-16T09:30:25.554Z,9.60
2023-04-16T09:33:00.165Z,9.70
2023-04-16T09:35:27.557Z,9.70
2023-04-16T09:37:58.485Z,9.70
2023-04-16T09:40:30.715Z,9.70
2023-04-16T09:42:58.932Z,9.70
2023-04-16T09:45:26.750Z,9.70
2023-04-16T09:47:53.900Z,9.80
2023-04-16T09:50:21.263Z,9.80
2023-04-16T09:52:52.832Z,9.80
2023-04-16T09:55:28.250Z,9.80
2023-04-16T09:58:02.250Z,9.90
2023-04-16T10:00:34.477Z,9.80
2023-04-16T10:03:08.471Z,9.90
2023-04-16T10:05:35.851Z,9.90
2023-04-16T10:08:03.406Z,9.90
2023-04-16T10:10:30.784Z,9.90
2023-04-16T10:12:58.199Z,10.00
2023-04-16T10:15:25.907Z,10.00
2023-04-16T10:17:54.503Z,10.10
2023-04-16T10:20:22.710Z,10.10
2023-04-16T10:22:50.920Z,10.10
2023-04-16T10:25:18.685Z,10.10
2023-04-16T10:27:46.112Z,10.10
2023-04-16T10:30:14.105Z,10.10
2023-04-16T10:32:41.474Z,10.20
2023-04-16T10:35:09.000Z,10.20
2023-04-16T10:37:38.277Z,10.20
2023-04-16T10:40:28.107Z,10.30
2023-04-16T10:42:57.644Z,10.40
2023-04-16T10:45:38.073Z,10.40
2023-04-16T10:48:07.209Z,10.50
2023-04-16T10:50:37.986Z,10.40
2023-04-16T10:53:31.495Z,10.40
2023-04-16T10:56:07.215Z,10.50
2023-04-16T10:58:36.569Z,10.50
2023-04-16T11:01:14.548Z,10.50
2023-04-16T11:03:47.300Z,10.50
2023-04-16T11:06:17.800Z,10.50
2023-04-16T11:11:16.393Z,10.60
2023-04-16T11:13:48.609Z,10.60
2023-04-16T11:16:17.018Z,10.60
2023-04-16T11:18:51.338Z,10.60
2023-04-16T11:21:19.059Z,10.60
2023-04-16T11:23:48.633Z,10.60
2023-04-16T11:26:28.286Z,10.60
2023-04-16T11:28:57.121Z,10.60
2023-04-16T11:31:25.002Z,10.60
2023-04-16T11:33:52.206Z,10.60
2023-04-16T11:36:19.482Z,10.60
2023-04-16T11:38:47.168Z,10.60
2023-04-16T11:41:21.005Z,10.60
2023-04-16T11:43:48.126Z,10.60
2023-04-16T11:46:26.914Z,10.60
2023-04-16T11:48:58.840Z,10.50
2023-04-16T11:51:25.996Z,10.40
2023-04-16T11:53:54.356Z,10.40
2023-04-16T11:56:34.516Z,10.50
2023-04-16T11:59:21.207Z,10.50
2023-04-16T12:01:51.559Z,10.60
2023-04-16T12:04:29.610Z,10.60
2023-04-16T12:07:13.512Z,10.60
2023-04-16T12:09:43.204Z,10.60
2023-04-16T12:12:31.642Z,10.60
2023-04-16T12:15:00.393Z,10.70
2023-04-16T12:17:27.636Z,10.70
2023-04-16T12:20:00.365Z,10.70
2023-04-16T12:22:31.705Z,10.80
2023-04-16T12:24:59.657Z,10.90
2023-04-16T12:27:28.859Z,10.90
2023-04-16T12:30:07.492Z,10.90
2023-04-16T12:32:34.719Z,10.90
2023-04-16T12:35:02.185Z,10.90
2023-04-16T12:37:29.257Z,10.90
2023-04-16T12:39:56.721Z,10.90
2023-04-16T12:42:23.835Z,10.90
2023-04-16T12:44:51.799Z,10.90
2023-04-16T12:47:18.912Z,11.00
2023-04-16T12:49:46.035Z,11.00
2023-04-16T12:52:13.149Z,11.10
2023-04-16T12:54:40.214Z,11.10
2023-04-16T12:57:07.333Z,11.10
2023-04-16T12:59:34.458Z,11.10
2023-04-16T13:02:03.062Z,11.10
2023-04-16T13:04:30.380Z,11.10
2023-04-16T13:06:57.574Z,11.10
2023-04-16T13:09:25.010Z,11.20
2023-04-16T13:11:52.233Z,11.30
2023-04-16T13:14:20.908Z,11.30
2023-04-16T13:16:48.019Z,11.30
2023-04-16T13:19:16.151Z,11.30
2023-04-16T13:21:43.327Z,11.30
2023-04-16T13:24:10.504Z,11.30
2023-04-16T13:26:37.641Z,11.30
2023-04-16T13:29:04.793Z,11.30
2023-04-16T13:31:31.953Z,11.30
2023-04-16T13:33:59.151Z,11.30
2023-04-16T13:36:27.843Z,11.40
2023-04-16T13:38:55.000Z,11.40
2023-04-16T13:41:22.175Z,11.40
2023-04-16T13:43:49.297Z,11.50
2023-04-16T13:46:16.583Z,11.50
2023-04-16T13:48:43.822Z,11.60
2023-04-16T13:51:10.969Z,11.50
2023-04-16T13:53:38.109Z,11.50
2023-04-16T13:56:05.656Z,11.60
2023-04-16T13:58:32.994Z,11.60
2023-04-16T14:01:00.298Z,11.50
2023-04-16T14:03:27.592Z,11.50
2023-04-16T14:05:54.754Z,11.50
2023-04-16T14:08:22.548Z,11.50
2023-04-16T14:10:49.672Z,11.50
2023-04-16T14:13:16.809Z,11.60
2023-04-16T14:15:43.928Z,11.60
2023-04-16T14:18:11.386Z,11.60
2023-04-16T14:20:40.162Z,11.60
2023-04-16T14:23:07.569Z,11.60
2023-04-16T14:25:34.782Z,11.50
2023-04-16T14:28:02.096Z,11.40
2023-04-16T14:30:29.257Z,11.40
2023-04-16T14:32:56.710Z,11.30
2023-04-16T14:35:24.021Z,11.20
2023-04-16T14:37:51.349Z,11.30
2023-04-16T14:40:18.617Z,11.20
2023-04-16T14:42:46.005Z,11.20
2023-04-16T14:45:13.266Z,11.20
2023-04-16T14:47:46.129Z,11.20
2023-04-16T14:50:14.886Z,11.10
2023-04-16T14:52:42.413Z,11.20
2023-04-16T14:55:09.593Z,11.30
2023-04-16T14:57:36.750Z,11.40
2023-04-16T15:00:08.096Z,11.30
2023-04-16T15:02:35.739Z,11.20
2023-04-16T15:05:03.061Z,11.30
2023-04-16T15:07:30.368Z,11.30
2023-04-16T15:09:57.642Z,11.30
2023-04-16T15:12:25.071Z,11.30
2023-04-16T15:14:52.282Z,11.30
2023-04-16T15:17:21.831Z,11.40
2023-04-16T15:19:48.985Z,11.40
2023-04-16T15:22:16.986Z,11.40
2023-04-16T15:24:44.326Z,11.40
2023-04-16T15:27:12.642Z,11.50
2023-04-16T15:29:39.737Z,11.40
2023-04-16T15:32:07.264Z,11.40
2023-04-16T15:34:34.718Z,11.40
2023-04-16T15:37:01.910Z,11.40
2023-04-16T15:39:29.058Z,11.30
2023-04-16T15:42:00.740Z,11.30
2023-04-16T15:44:28.795Z,11.30
2023-04-16T15:46:56.023Z,11.20
2023-04-16T15:49:23.598Z,11.20
2023-04-16T15:51:51.274Z,11.20
2023-04-16T15:54:18.637Z,11.20
2023-04-16T15:56:46.859Z,11.10
2023-04-16T15:59:14.067Z,11.10
2023-04-16T16:01:41.312Z,11.10
2023-04-16T16:04:08.753Z,11.20
2023-04-16T16:06:38.148Z,11.10
2023-04-16T16:09:05.359Z,11.20
2023-04-16T16:11:32.857Z,11.10
2023-04-16T16:14:03.153Z,11.20
2023-04-16T16:16:30.313Z,11.10
2023-04-16T16:18:57.534Z,11.10
2023-04-16T16:21:24.674Z,11.10
2023-04-16T16:23:51.969Z,10.90
2023-04-16T16:26:20.867Z,11.00
2023-04-16T16:28:48.163Z,11.00
2023-04-16T16:31:15.287Z,10.90
2023-04-16T16:33:42.396Z,10.80
2023-04-16T16:36:12.677Z,10.90
2023-04-16T16:38:42.737Z,11.00
2023-04-16T16:41:09.844Z,11.10
2023-04-16T16:43:36.964Z,11.10
2023-04-16T16:46:04.940Z,11.10
2023-04-16T16:48:32.071Z,11.10
2023-04-16T16:50:59.319Z,11.10
2023-04-16T16:53:26.824Z,11.10
2023-04-16T16:55:53.902Z,11.00
2023-04-16T16:58:21.146Z,11.10
2023-04-16T17:00:48.271Z,11.10
2023-04-16T17:03:15.838Z,11.10
2023-04-16T17:05:43.065Z,11.00
2023-04-16T17:08:10.202Z,11.00
2023-04-16T17:10:37.273Z,11.00
2023-04-16T17:13:04.389Z,10.90
2023-04-16T17:15:31.467Z,10.80
2023-04-16T17:17:58.604Z,10.80
2023-04-16T17:20:26.653Z,10.80
2023-04-16T17:22:54.107Z,10.70
2023-04-16T17:25:21.579Z,10.70
2023-04-16T17:27:48.714Z,10.70
2023-04-16T17:30:16.033Z,10.70
2023-04-16T17:32:43.147Z,10.70
2023-04-16T17:35:11.153Z,10.70
2023-04-16T17:37:38.296Z,10.70
2023-04-16T17:40:07.766Z,10.80
2023-04-16T17:42:35.909Z,10.70
2023-04-16T17:45:03.692Z,10.70
2023-04-16T17:47:30.938Z,10.70
2023-04-16T17:49:58.125Z,10.60
2023-04-16T17:52:25.564Z,10.70
2023-04-16T17:54:53.383Z,10.60
2023-04-16T17:57:21.057Z,10.70
2023-04-16T17:59:48.199Z,10.70
2023-04-16T18:02:15.674Z,10.70
2023-04-16T18:04:42.919Z,10.70
2023-04-16T18:07:10.045Z,10.50
2023-04-16T18:09:37.210Z,10.60
2023-04-16T18:12:04.583Z,10.50
2023-04-16T18:14:31.657Z,10.50
2023-04-16T18:16:58.787Z,10.40
2023-04-16T18:19:26.007Z,10.50
2023-04-16T18:21:53.093Z,10.40
2023-04-16T18:24:20.192Z,10.40
2023-04-16T18:26:47.363Z,10.30
2023-04-16T18:29:14.914Z,10.30
2023-04-16T18:31:42.441Z,10.30
2023-04-16T18:34:10.043Z,10.30
2023-04-16T18:36:37.324Z,10.30
2023-04-16T18:39:04.390Z,10.20
2023-04-16T18:41:31.725Z,10.20
2023-04-16T18:43:58.861Z,10.20
2023-04-16T18:46:26.938Z,10.20
2023-04-16T18:48:54.429Z,10.20
2023-04-16T18:51:21.845Z,10.10
2023-04-16T18:53:48.918Z,10.10
2023-04-16T18:56:16.078Z,10.00
2023-04-16T18:58:43.482Z,10.00
2023-04-16T19:01:13.190Z,9.90
2023-04-16T19:03:40.518Z,9.90
2023-04-16T19:06:07.802Z,9.80
2023-04-16T19:08:34.913Z,9.80
2023-04-16T19:11:02.113Z,9.80
2023-04-16T19:13:30.619Z,9.80
2023-04-16T19:16:02.285Z,9.80
2023-04-16T19:18:29.409Z,9.70
2023-04-16T19:21:03.690Z,9.70
2023-04-16T19:23:30.845Z,9.70
2023-04-16T19:25:57.997Z,9.70
2023-04-16T19:28:25.891Z,9.70
2023-04-16T19:30:53.986Z,9.70
2023-04-16T19:33:21.149Z,9.70
2023-04-16T19:35:48.342Z,9.70
2023-04-16T19:38:15.779Z,9.70
2023-04-16T19:40:46.903Z,9.60
2023-04-16T19:43:14.343Z,9.60
2023-04-16T19:45:49.681Z,9.60
2023-04-16T19:48:16.891Z,9.50
2023-04-16T19:50:44.176Z,9.60
2023-04-16T19:53:12.298Z,9.50
2023-04-16T19:55:40.289Z,9.50
2023-04-16T19:58:08.190Z,9.50
2023-04-16T20:00:38.681Z,9.40
2023-04-16T20:03:06.480Z,9.40
2023-04-16T20:05:33.813Z,9.30
2023-04-16T20:08:01.023Z,9.30
2023-04-16T20:10:28.171Z,9.20
2023-04-16T20:12:55.395Z,9.20
2023-04-16T20:15:22.617Z,9.20
2023-04-16T20:17:49.811Z,9.20
2023-04-16T20:20:16.998Z,9.20
2023-04-16T20:22:44.192Z,9.20
2023-04-16T20:25:11.691Z,9.30
2023-04-16T20:27:38.816Z,9.20
2023-04-16T20:30:06.722Z,9.20
2023-04-16T20:32:33.975Z,9.20
2023-04-16T20:35:02.139Z,9.10
2023-04-16T20:37:29.312Z,9.00
2023-04-16T20:39:56.753Z,8.90
2023-04-16T20:42:26.954Z,8.90
2023-04-16T20:44:56.864Z,8.80
2023-04-16T20:47:24.211Z,8.90
2023-04-16T20:49:53.065Z,8.90
2023-04-16T20:52:21.608Z,8.90
2023-04-16T20:54:52.067Z,8.80
2023-04-16T20:57:19.510Z,8.80
2023-04-16T20:59:46.631Z,8.80
2023-04-16T21:02:13.988Z,8.80
2023-04-16T21:04:41.294Z,8.80
2023-04-16T21:07:08.455Z,8.80
2023-04-16T21:09:35.897Z,8.80
2023-04-16T21:12:03.060Z,8.80
2023-04-16T21:14:30.137Z,8.80
2023-04-16T21:16:57.755Z,8.70
2023-04-16T21:19:24.827Z,8.60
2023-04-16T21:21:52.043Z,8.70
2023-04-16T21:24:19.178Z,8.60
2023-04-16T21:26:46.272Z,8.60
2023-04-16T21:29:13.514Z,8.60
2023-04-16T21:31:41.006Z,8.60
2023-04-16T21:34:08.189Z,8.70
2023-04-16T21:36:35.304Z,8.60
2023-04-16T21:39:02.528Z,8.60
2023-04-16T21:41:29.682Z,8.60
2023-04-16T21:43:57.092Z,8.60
2023-04-16T21:46:25.662Z,8.60
2023-04-16T21:48:52.829Z,8.60
2023-04-16T21:51:29.108Z,8.60
2023-04-16T21:53:57.254Z,8.60
2023-04-16T21:56:25.111Z,8.60
2023-04-16T21:58:52.679Z,8.60
2023-04-16T22:01:19.865Z,8.50
2023-04-16T22:03:50.976Z,8.60
2023-04-16T22:06:18.551Z,8.60
2023-04-16T22:08:45.655Z,8.60
2023-04-16T22:11:12.915Z,8.50
2023-04-16T22:13:42.142Z,8.60
2023-04-16T22:16:11.520Z,8.40
2023-04-16T22:18:39.009Z,8.40
2023-04-16T22:21:06.181Z,8.40
2023-04-16T22:23:33.389Z,8.30
2023-04-16T22:26:02.918Z,8.30
2023-04-16T22:28:30.280Z,8.40
2023-04-16T22:30:57.584Z,8.30
2023-04-16T22:33:24.702Z,8.40
2023-04-16T22:35:52.177Z,8.30
2023-04-16T22:38:19.372Z,8.30
2023-04-16T22:40:49.008Z,8.20
2023-04-16T22:43:17.763Z,8.20
2023-04-16T22:45:46.457Z,8.20
2023-04-16T22:48:13.831Z,8.30
2023-04-16T22:50:45.971Z,8.20
2023-04-16T22:53:13.114Z,8.30
2023-04-16T22:55:40.194Z,8.30
2023-04-16T22:58:07.286Z,8.30
2023-04-16T23:00:34.570Z,8.30
2023-04-16T23:03:02.066Z,8.30
2023-04-16T23:05:29.453Z,8.20
2023-04-16T23:07:57.041Z,8.20
2023-04-16T23:10:24.134Z,8.20
2023-04-16T23:12:54.877Z,8.20
2023-04-16T23:15:22.075Z,8.20
2023-04-16T23:17:49.182Z,8.20
2023-04-16T23:20:16.468Z,8.20
2023-04-16T23:22:43.542Z,8.20
2023-04-16T23:25:11.118Z,8.20
2023-04-16T23:27:38.349Z,8.20
2023-04-16T23:30:06.890Z,8.20
2023-04-16T23:32:34.457Z,8.20
2023-04-16T23:35:01.674Z,8.20
2023-04-16T23:37:28.763Z,8.20
2023-04-16T23:39:55.888Z,8.10
2023-04-16T23:42:22.954Z,8.10
2023-04-16T23:44:50.029Z,8.20
2023-04-16T23:47:17.205Z,8.20
2023-04-16T23:49:44.274Z,8.20
2023-04-16T23:52:11.333Z,8.20
2023-04-16T23:54:38.441Z,8.20
2023-04-16T23:57:05.760Z,8.20
2023-04-16T23:59:32.864Z,8.20
